Time;durP1;ratioP1;P1;durP2;ratioP2;P2;SDS_P1;SDS_P2;PMS_P1;PMS_P2;Temp;Humidity;BMP_temperature;BMP_pressure;BME280_temperature;BME280_humidity;BME280_pressure;Samples;Min_cycle;Max_cycle;Signal;HPM_P1;HPM_P2
2023/10/09 11:32:53;;;;;;;1.40;0.50;;;;;;;8.18;100.00;99956.13;108946;1261;60023;31
2023/10/09 11:35:27;;;;;;;1.70;0.50;;;;;;;8.17;100.00;99966.09;107646;1244;73414;-60
2023/10/09 11:37:57;;;;;;;2.40;1.10;;;;;;;8.15;100.00;99975.45;107230;1249;65926;-70
2023/10/09 11:40:33;;;;;;;4.20;1.10;;;;;;;8.12;100.00;99975.89;107561;1247;71375;-61
2023/10/09 11:43:02;;;;;;;3.10;1.20;;;;;;;8.03;100.00;99982.69;107459;1244;61257;-67
2023/10/09 11:45:30;;;;;;;1.70;0.50;;;;;;;7.96;100.00;99985.38;107409;1247;61313;-67
2023/10/09 11:48:21;;;;;;;3.20;0.50;;;;;;;7.90;100.00;99994.80;107474;1247;74580;-62
2023/10/09 11:50:51;;;;;;;2.30;0.60;;;;;;;7.81;100.00;100003.06;107305;1244;67149;-63
2023/10/09 11:55:54;;;;;;;2.40;0.70;;;;;;;7.58;100.00;100014.08;107839;1246;61331;-55
2023/10/09 11:58:25;;;;;;;2.70;0.60;;;;;;;7.49;100.00;100015.39;107872;1245;61164;-58
2023/10/09 12:01:03;;;;;;;;;;;;;;;7.43;100.00;100010.38;107866;1246;74771;-58
2023/10/09 12:03:32;;;;;;;2.10;0.60;;;;;;;7.38;100.00;100010.36;107843;1247;68523;-56
2023/10/09 12:06:49;;;;;;;2.30;0.80;;;;;;;7.35;100.00;100010.09;107871;1248;74028;-57
2023/10/09 12:21:15;;;;;;;3.00;0.70;;;;;;;7.32;100.00;100010.70;102888;1286;613741;-57
2023/10/09 12:23:47;;;;;;;;;;;;;;;7.45;100.00;100014.57;104838;1271;119005;-56
2023/10/09 12:26:15;;;;;;;2.00;0.80;;;;;;;7.45;100.00;100012.05;104843;1264;63135;-57
2023/10/09 12:28:47;;;;;;;2.20;0.60;;;;;;;7.45;100.00;100009.55;104675;1273;71063;-56
2023/10/09 12:31:16;;;;;;;3.20;0.80;;;;;;;7.48;100.00;100012.92;105733;1267;65640;-55
2023/10/09 12:33:43;;;;;;;4.60;0.80;;;;;;;7.49;100.00;100010.66;106169;1267;75206;-55
2023/10/09 12:36:17;;;;;;;1.90;0.60;;;;;;;7.49;100.00;100011.05;104396;1270;59356;-54
2023/10/09 12:38:50;;;;;;;2.20;0.60;;;;;;;7.46;100.00;100005.92;104521;1269;59264;-55
2023/10/09 12:41:25;;;;;;;3.90;0.70;;;;;;;7.41;100.00;100002.38;104602;1264;73961;-54
2023/10/09 12:43:59;;;;;;;2.90;0.60;;;;;;;7.36;100.00;100007.71;104823;1264;65853;-54
2023/10/09 12:46:27;;;;;;;1.30;0.30;;;;;;;7.32;100.00;100008.67;104754;1270;75893;-55
2023/10/09 12:48:55;;;;;;;1.50;0.50;;;;;;;7.30;100.00;100008.52;104629;1270;59760;-56
2023/10/09 12:51:29;;;;;;;2.00;0.60;;;;;;;7.30;100.00;100007.40;104523;1264;61081;-54
2023/10/09 12:53:58;;;;;;;1.60;0.40;;;;;;;7.34;100.00;100007.39;104917;1271;73168;-54
2023/10/09 12:56:38;;;;;;;2.10;0.50;;;;;;;7.35;100.00;100010.05;105203;1267;68358;-55
2023/10/09 12:59:07;;;;;;;3.60;0.90;;;;;;;7.36;100.00;100008.65;104629;1270;72215;-54
2023/10/09 13:01:44;;;;;;;1.70;0.50;;;;;;;7.38;100.00;100009.39;104736;1264;59718;-54
2023/10/09 13:04:15;;;;;;;2.20;0.80;;;;;;;7.38;100.00;100008.31;104514;1270;59528;-55
2023/10/09 13:06:46;;;;;;;2.20;0.70;;;;;;;7.37;100.00;100006.71;105485;1257;73219;-54
2023/10/09 13:09:24;;;;;;;1.70;0.50;;;;;;;7.38;100.00;100006.02;105516;1260;67012;-54
2023/10/09 13:11:52;;;;;;;2.50;0.70;;;;;;;7.43;100.00;100014.65;105250;1257;73174;-54
2023/10/09 13:14:23;;;;;;;4.20;2.00;;;;;;;7.45;100.00;100016.45;105519;1259;61969;-54
2023/10/09 13:16:52;;;;;;;5.50;2.70;;;;;;;7.48;100.00;100012.60;105524;1256;59685;-54
2023/10/09 13:19:24;;;;;;;5.90;3.30;;;;;;;7.50;100.00;100017.90;105497;1260;73124;-54
2023/10/09 13:21:52;;;;;;;4.00;1.40;;;;;;;7.52;100.00;100018.35;105391;1258;68756;-55
2023/10/09 13:24:24;;;;;;;2.80;0.90;;;;;;;7.52;100.00;100022.27;105468;1260;75369;-54
2023/10/09 13:26:58;;;;;;;2.60;0.80;;;;;;;7.52;100.00;100023.65;105401;1257;59651;-54
2023/10/09 13:29:27;;;;;;;2.50;0.80;;;;;;;7.51;100.00;100024.68;105305;1254;61371;-55
2023/10/09 13:31:58;;;;;;;2.40;0.70;;;;;;;7.49;100.00;100017.25;105739;1254;74780;-58
2023/10/09 13:34:28;;;;;;;1.80;0.40;;;;;;;7.44;100.00;100023.30;105604;1253;68226;-55
2023/10/09 13:36:59;;;;;;;2.70;0.60;;;;;;;7.42;100.00;100027.85;105565;1254;74409;-54
2023/10/09 13:39:27;;;;;;;1.60;0.40;;;;;;;7.41;100.00;100036.50;105483;1254;60950;-55
2023/10/09 13:41:59;;;;;;;1.60;0.60;;;;;;;7.39;100.00;100038.77;105591;1251;63064;-55
2023/10/09 13:44:28;;;;;;;1.70;0.50;;;;;;;7.42;100.00;100045.07;105407;1251;71818;-55
2023/10/09 13:47:05;;;;;;;1.90;0.60;;;;;;;7.39;100.00;100051.10;105531;1252;67599;-54
2023/10/09 13:49:33;;;;;;;2.40;0.70;;;;;;;7.38;100.00;100052.27;105264;1255;73051;-57
2023/10/09 13:52:02;;;;;;;3.20;0.80;;;;;;;7.37;100.00;100050.27;105567;1253;59691;-56
2023/10/09 13:57:05;;;;;;;2.20;0.80;;;;;;;7.34;100.00;100053.52;105418;1254;73091;-56
2023/10/09 13:59:35;;;;;;;;;;;;;;;7.32;100.00;100056.50;105704;1251;66946;-57
2023/10/09 14:02:09;;;;;;;2.60;0.80;;;;;;;7.29;100.00;100054.38;105498;1257;74494;-57
2023/10/09 14:04:37;;;;;;;4.60;1.30;;;;;;;7.26;100.00;100056.69;105389;1257;59656;-56
2023/10/09 14:07:06;;;;;;;2.20;0.60;;;;;;;7.23;100.00;100060.27;105608;1254;59640;-57
2023/10/09 14:12:24;;;;;;;2.60;0.60;;;;;;;7.16;100.00;100063.13;105495;1255;65720;-56
2023/10/09 14:14:53;;;;;;;1.90;0.60;;;;;;;7.13;100.00;100067.05;105722;1253;75185;-57
2023/10/09 14:17:27;;;;;;;2.30;0.50;;;;;;;7.10;100.00;100071.70;105462;1259;59670;-55
2023/10/09 14:20:25;;;;;;;2.10;0.50;;;;;;;7.07;100.00;100073.02;105386;1253;60086;-55
2023/10/09 14:22:46;;;;;;;4.10;0.80;;;;;;;7.04;100.00;100078.50;105161;1258;76585;-55
2023/10/09 14:25:15;;;;;;;4.00;1.70;;;;;;;7.01;100.00;100081.23;105437;1254;66907;-55
2023/10/09 14:27:43;;;;;;;3.70;1.40;;;;;;;6.98;100.00;100086.93;105455;1265;75169;-56
2023/10/09 14:30:18;;;;;;;2.80;0.80;;;;;;;6.95;100.00;100090.66;105552;1260;59346;-56
2023/10/09 14:32:51;;;;;;;1.40;0.50;;;;;;;6.94;100.00;100098.14;105191;1258;59583;-56
2023/10/09 14:35:21;;;;;;;2.30;0.60;;;;;;;6.91;100.00;100101.68;105489;1254;76304;-55
2023/10/09 14:37:49;;;;;;;2.90;0.70;;;;;;;6.87;100.00;100103.14;105433;1257;66919;-55
2023/10/09 14:40:20;;;;;;;2.90;1.10;;;;;;;6.85;100.00;100104.74;105109;1257;73333;-54
2023/10/09 14:42:52;;;;;;;1.80;0.70;;;;;;;6.82;100.00;100108.98;105357;1254;59928;-56
2023/10/09 14:45:25;;;;;;;2.90;0.60;;;;;;;6.80;100.00;100110.81;105444;1253;59554;-56
2023/10/09 14:47:54;;;;;;;3.00;1.00;;;;;;;6.77;100.00;100119.59;105596;1254;73132;-55
2023/10/09 14:50:22;;;;;;;1.80;0.70;;;;;;;6.74;100.00;100119.07;105332;1256;69771;-56
2023/10/09 14:52:50;;;;;;;2.70;0.80;;;;;;;6.71;100.00;100122.34;105506;1257;71448;-55
2023/10/09 14:55:20;;;;;;;2.80;0.90;;;;;;;6.67;100.00;100128.91;105341;1260;63858;-55
2023/10/09 14:57:52;;;;;;;2.00;0.90;;;;;;;6.65;100.00;100138.30;105542;1254;59731;-56
2023/10/09 15:00:23;;;;;;;2.40;1.10;;;;;;;6.62;100.00;100139.97;105457;1254;71881;-54
2023/10/09 15:02:52;;;;;;;3.10;0.90;;;;;;;6.59;100.00;100148.41;105497;1259;65665;-54
2023/10/09 15:05:22;;;;;;;2.50;0.90;;;;;;;6.57;100.00;100153.79;105362;1253;72664;-56
2023/10/09 15:07:52;;;;;;;2.10;1.00;;;;;;;6.54;100.00;100156.27;105111;1254;59673;-55
2023/10/09 15:10:23;;;;;;;2.50;1.10;;;;;;;6.51;100.00;100160.09;105530;1254;60095;-54
2023/10/09 15:12:51;;;;;;;2.50;1.10;;;;;;;6.49;100.00;100161.19;105340;1253;73067;-54
2023/10/09 15:15:25;;;;;;;2.20;1.00;;;;;;;6.46;100.00;100164.93;105469;1254;68160;-54
2023/10/09 15:17:53;;;;;;;3.60;1.40;;;;;;;6.44;100.00;100170.20;105491;1255;74091;-55
2023/10/09 15:20:21;;;;;;;2.60;1.40;;;;;;;6.40;100.00;100173.84;105336;1253;59800;-55
2023/10/09 15:22:48;;;;;;;2.20;1.20;;;;;;;6.39;100.00;100173.46;105452;1254;62128;-54
2023/10/09 15:25:17;;;;;;;1.90;0.60;;;;;;;6.37;100.00;100172.27;105495;1254;75334;-55
2023/10/09 15:27:45;;;;;;;3.20;0.80;;;;;;;6.37;100.00;100175.89;105356;1254;69433;-55
2023/10/09 15:30:13;;;;;;;2.00;0.80;;;;;;;6.36;100.00;100176.16;105390;1254;74414;-54
2023/10/09 15:32:45;;;;;;;2.70;0.70;;;;;;;6.34;100.00;100182.51;105570;1257;60169;-55
2023/10/09 15:35:13;;;;;;;2.80;0.80;;;;;;;6.34;100.00;100179.63;105574;1258;61604;-56
2023/10/09 15:37:42;;;;;;;1.80;0.70;;;;;;;6.33;100.00;100179.54;105610;1255;74785;-54
2023/10/09 15:40:14;;;;;;;1.90;0.70;;;;;;;6.32;100.00;100184.66;105346;1253;66246;-55
2023/10/09 15:42:56;;;;;;;3.40;1.10;;;;;;;6.30;100.00;100189.87;105227;1253;74150;-54
2023/10/09 15:45:26;;;;;;;4.40;1.60;;;;;;;6.28;100.00;100196.30;105397;1257;61251;-54
2023/10/09 15:47:54;;;;;;;4.40;1.50;;;;;;;6.26;100.00;100199.77;105432;1259;62419;-55
2023/10/09 15:50:25;;;;;;;2.20;0.80;;;;;;;6.24;100.00;100206.02;105428;1254;75505;-55
2023/10/09 15:52:54;;;;;;;;;;;;;;;6.22;100.00;100212.47;105412;1259;68678;-58
2023/10/09 15:55:24;;;;;;;2.70;0.60;;;;;;;6.20;100.00;100210.09;105332;1259;73527;-56
2023/10/09 15:57:54;;;;;;;2.10;0.90;;;;;;;6.19;100.00;100210.73;105413;1253;61047;-55
2023/10/09 16:00:28;;;;;;;1.80;0.70;;;;;;;6.19;100.00;100213.52;105315;1259;61866;-54
2023/10/09 16:02:56;;;;;;;2.10;0.90;;;;;;;6.19;100.00;100214.73;105226;1254;73015;-57
2023/10/09 16:05:27;;;;;;;2.10;0.80;;;;;;;6.16;100.00;100216.15;105391;1257;69303;-54
2023/10/09 16:07:55;;;;;;;1.70;0.60;;;;;;;6.15;100.00;100220.42;105258;1256;73745;-56
2023/10/09 16:10:23;;;;;;;2.50;0.70;;;;;;;6.13;100.00;100221.48;105395;1254;61721;-56
2023/10/09 16:12:51;;;;;;;1.50;0.80;;;;;;;6.12;100.00;100225.36;105281;1254;62719;-57
2023/10/09 16:15:20;;;;;;;1.70;0.50;;;;;;;6.10;100.00;100231.39;105418;1253;72348;-57
2023/10/09 16:17:49;;;;;;;2.00;0.60;;;;;;;6.08;100.00;100233.36;105290;1260;67658;-54
2023/10/09 16:20:25;;;;;;;1.80;0.50;;;;;;;6.05;100.00;100232.27;105294;1253;74338;-54
2023/10/09 16:22:53;;;;;;;2.10;1.00;;;;;;;6.02;100.00;100234.64;105683;1254;59637;-55
2023/10/09 16:25:24;;;;;;;2.80;0.90;;;;;;;6.00;100.00;100234.81;105443;1253;60678;-54
2023/10/09 16:27:52;;;;;;;2.60;0.50;;;;;;;5.99;100.00;100235.81;105518;1253;74569;-55
2023/10/09 16:30:21;;;;;;;2.20;0.70;;;;;;;5.98;100.00;100238.88;105487;1257;65671;-55
2023/10/09 16:32:50;;;;;;;2.50;0.70;;;;;;;5.96;100.00;100239.55;105324;1254;71154;-54
2023/10/09 16:35:21;;;;;;;2.10;0.60;;;;;;;5.94;100.00;100238.17;105168;1260;60467;-54
2023/10/09 16:37:50;;;;;;;2.50;0.70;;;;;;;5.93;100.00;100234.84;105479;1253;60508;-54
2023/10/09 16:40:20;;;;;;;2.00;0.60;;;;;;;5.91;100.00;100239.71;105464;1257;77143;-54
2023/10/09 16:42:53;;;;;;;4.00;0.70;;;;;;;5.89;100.00;100248.02;105489;1257;65964;-56
2023/10/09 16:45:21;;;;;;;2.80;0.50;;;;;;;5.87;100.00;100252.01;105337;1257;72255;-56
2023/10/09 16:47:54;;;;;;;2.20;0.70;;;;;;;5.85;100.00;100256.77;105372;1254;61113;-55
2023/10/09 16:50:28;;;;;;;2.00;0.40;;;;;;;5.85;100.00;100258.36;105233;1253;60496;-56
2023/10/09 16:52:56;;;;;;;2.30;0.70;;;;;;;5.85;100.00;100255.94;105727;1258;73901;-57
2023/10/09 16:55:24;;;;;;;1.30;0.40;;;;;;;5.84;100.00;100257.94;105607;1253;69120;-55
2023/10/09 16:57:52;;;;;;;2.90;0.70;;;;;;;5.84;100.00;100254.22;105635;1253;74479;-55
2023/10/09 17:00:39;;;;;;;1.30;0.50;;;;;;;5.83;100.00;100254.77;105557;1259;60495;-54
2023/10/09 17:03:07;;;;;;;1.90;0.60;;;;;;;5.83;100.00;100254.27;105505;1254;64212;-54
2023/10/09 17:05:42;;;;;;;2.20;0.60;;;;;;;5.80;100.00;100249.37;105604;1253;75117;-53
2023/10/09 17:08:10;;;;;;;2.40;0.60;;;;;;;5.74;100.00;100250.66;105473;1253;69584;-54
2023/10/09 17:10:45;;;;;;;1.40;0.40;;;;;;;5.67;100.00;100249.84;105645;1257;73870;-54
2023/10/09 17:13:20;;;;;;;2.50;0.70;;;;;;;5.56;100.00;100248.30;105426;1253;60358;-55
2023/10/09 17:15:52;;;;;;;1.90;0.70;;;;;;;5.47;100.00;100256.99;105628;1253;60515;-55
2023/10/09 17:18:21;;;;;;;3.60;1.00;;;;;;;5.35;100.00;100259.03;105702;1259;77726;-55
2023/10/09 17:20:49;;;;;;;2.40;0.70;;;;;;;5.24;100.00;100267.98;105725;1258;68235;-55
2023/10/09 17:23:18;;;;;;;1.80;0.70;;;;;;;5.13;100.00;100267.98;105748;1253;74623;-55
2023/10/09 17:25:46;;;;;;;2.10;0.70;;;;;;;5.04;100.00;100270.25;105702;1257;63106;-55
2023/10/09 17:28:17;;;;;;;3.20;1.20;;;;;;;4.96;100.00;100278.46;105862;1254;61898;-56
2023/10/09 17:30:48;;;;;;;3.70;1.30;;;;;;;4.87;100.00;100281.19;105720;1257;73866;-57
2023/10/09 17:33:19;;;;;;;4.90;1.70;;;;;;;4.78;100.00;100281.34;105955;1254;69150;-56
2023/10/09 17:35:47;;;;;;;5.50;1.80;;;;;;;4.72;100.00;100282.25;105642;1259;74002;-55
2023/10/09 17:38:18;;;;;;;3.10;1.30;;;;;;;4.67;100.00;100287.94;105594;1254;64119;-55
2023/10/09 17:40:53;;;;;;;4.20;1.50;;;;;;;4.62;100.00;100290.21;105789;1253;63315;-57
2023/10/09 17:43:21;;;;;;;3.80;1.50;;;;;;;4.60;100.00;100291.98;105653;1257;76676;-55
2023/10/09 17:45:53;;;;;;;2.60;1.00;;;;;;;4.60;100.00;100294.86;105758;1256;69167;-55
2023/10/09 17:48:22;;;;;;;3.10;1.20;;;;;;;4.60;100.00;100299.64;105649;1253;75540;-56
2023/10/09 17:50:52;;;;;;;4.10;1.40;;;;;;;4.61;100.00;100303.68;105646;1253;62516;-55
2023/10/09 17:53:20;;;;;;;5.60;2.40;;;;;;;4.62;100.00;100308.48;105574;1253;61444;-54
2023/10/09 17:55:52;;;;;;;6.40;3.10;;;;;;;4.63;100.00;100312.38;105704;1253;76871;-54
2023/10/09 17:58:26;;;;;;;7.20;3.00;;;;;;;4.62;100.00;100315.18;105871;1257;68233;-55
2023/10/09 18:00:55;;;;;;;4.90;2.60;;;;;;;4.60;100.00;100316.52;105536;1258;75560;-56
2023/10/09 18:03:27;;;;;;;5.60;3.10;;;;;;;4.59;100.00;100319.58;105635;1254;61084;-56
2023/10/09 18:05:55;;;;;;;6.40;3.60;;;;;;;4.58;100.00;100320.74;105683;1255;61790;-59
2023/10/09 18:08:25;;;;;;;6.80;3.50;;;;;;;4.56;100.00;100321.43;105190;1252;75124;-55
2023/10/09 18:10:59;;;;;;;7.10;3.80;;;;;;;4.52;100.00;100320.07;105620;1254;69232;-55
2023/10/09 18:13:28;;;;;;;10.60;4.10;;;;;;;4.48;100.00;100326.11;105664;1259;72828;-56
2023/10/09 18:16:07;;;;;;;7.10;4.40;;;;;;;4.45;100.00;100327.10;105628;1254;61520;-55
2023/10/09 18:18:36;;;;;;;12.70;5.50;;;;;;;4.44;100.00;100328.45;105597;1253;60524;-55
2023/10/09 18:21:08;;;;;;;8.70;5.90;;;;;;;4.43;100.00;100329.16;105817;1257;73005;-54
2023/10/09 18:23:36;;;;;;;14.50;6.80;;;;;;;4.41;100.00;100333.02;105963;1258;68275;-55
2023/10/09 18:26:06;;;;;;;10.30;6.10;;;;;;;4.37;100.00;100337.97;105654;1253;75297;-54
2023/10/09 18:28:36;;;;;;;10.20;5.60;;;;;;;4.33;100.00;100337.84;105756;1258;60695;-56
2023/10/09 18:31:13;;;;;;;10.80;6.30;;;;;;;4.27;100.00;100336.50;105814;1254;60357;-56
2023/10/09 18:33:43;;;;;;;8.40;5.50;;;;;;;4.23;100.00;100336.38;105760;1256;72871;-57
2023/10/09 18:36:11;;;;;;;8.00;4.70;;;;;;;4.19;100.00;100330.36;105710;1259;65978;-54
2023/10/09 18:38:40;;;;;;;10.40;5.60;;;;;;;4.17;100.00;100332.45;105640;1259;75411;-54
2023/10/09 18:41:10;;;;;;;7.30;4.40;;;;;;;4.14;100.00;100333.71;106212;1254;61484;-55
2023/10/09 18:43:41;;;;;;;6.30;3.90;;;;;;;4.14;100.00;100330.59;105908;1259;60375;-58
2023/10/09 18:46:11;;;;;;;6.10;3.50;;;;;;;4.14;100.00;100332.10;105723;1259;76359;-55
2023/10/09 18:48:39;;;;;;;7.00;4.20;;;;;;;4.18;100.00;100336.51;109243;1253;66811;-55
2023/10/09 18:51:13;;;;;;;6.60;3.70;;;;;;;4.20;100.00;100338.40;109111;1253;71731;-55
2023/10/09 18:53:43;;;;;;;6.90;3.70;;;;;;;4.23;100.00;100338.80;109207;1253;58751;-55
2023/10/09 18:56:15;;;;;;;6.70;3.50;;;;;;;4.25;100.00;100338.95;109324;1253;61581;-54
2023/10/09 18:58:42;;;;;;;7.60;4.40;;;;;;;4.27;100.00;100339.43;109248;1253;74952;-56
2023/10/09 19:01:13;;;;;;;7.10;3.30;;;;;;;4.29;100.00;100339.95;109194;1253;68849;-56
2023/10/09 19:03:49;;;;;;;6.50;3.70;;;;;;;4.31;100.00;100337.36;109205;1253;72728;-53
2023/10/09 19:06:17;;;;;;;7.60;3.80;;;;;;;4.33;100.00;100336.11;109278;1253;63014;-55
2023/10/09 19:08:47;;;;;;;6.00;3.30;;;;;;;4.36;100.00;100337.21;109222;1253;58958;-55
2023/10/09 19:11:19;;;;;;;5.30;2.70;;;;;;;4.39;100.00;100331.08;109250;1253;72152;-55
2023/10/09 19:13:47;;;;;;;4.70;2.60;;;;;;;4.43;100.00;100329.39;109218;1253;67378;-55
2023/10/09 19:16:15;;;;;;;5.90;2.70;;;;;;;4.45;100.00;100339.11;109282;1254;74926;-55
2023/10/09 19:18:43;;;;;;;6.60;2.60;;;;;;;4.48;100.00;100345.08;109256;1252;59632;-55
2023/10/09 19:21:13;;;;;;;4.50;2.50;;;;;;;4.50;100.00;100339.52;109180;1253;62860;-55
2023/10/09 19:23:44;;;;;;;6.00;2.70;;;;;;;4.53;100.00;100343.73;109243;1253;71739;-56
2023/10/09 19:26:15;;;;;;;6.40;3.20;;;;;;;4.56;100.00;100344.12;109269;1253;68854;-56
2023/10/09 19:28:43;;;;;;;6.60;2.90;;;;;;;4.60;100.00;100345.46;109287;1253;74164;-55
2023/10/09 19:31:12;;;;;;;8.20;3.10;;;;;;;4.64;100.00;100347.03;109218;1253;61338;-55
2023/10/09 19:33:43;;;;;;;7.30;3.40;;;;;;;4.68;100.00;100348.04;109212;1253;60463;-54
2023/10/09 19:36:11;;;;;;;6.60;3.30;;;;;;;4.70;100.00;100345.61;109304;1253;74078;-55
2023/10/09 19:38:43;;;;;;;9.10;4.50;;;;;;;4.72;100.00;100346.31;109262;1252;67060;-55
2023/10/09 19:41:11;;;;;;;7.10;3.20;;;;;;;4.75;100.00;100347.45;109170;1253;73133;-55
2023/10/09 19:43:39;;;;;;;6.90;3.60;;;;;;;4.78;100.00;100344.05;109203;1253;59544;-53
2023/10/09 19:46:07;;;;;;;6.70;3.20;;;;;;;4.80;100.00;100341.87;109254;1253;59526;-53
2023/10/09 19:48:35;;;;;;;6.50;3.40;;;;;;;4.83;100.00;100341.64;109318;1253;73912;-53
2023/10/09 19:51:03;;;;;;;6.90;3.40;;;;;;;4.85;100.00;100344.84;109322;1253;66821;-53
2023/10/09 19:53:31;;;;;;;5.80;3.20;;;;;;;4.88;100.00;100344.05;109222;1253;72293;-54
2023/10/09 19:56:00;;;;;;;4.80;2.40;;;;;;;4.91;100.00;100347.09;109217;1253;61788;-54
2023/10/09 19:58:27;;;;;;;5.50;3.30;;;;;;;4.94;100.00;100346.51;109247;1253;60071;-54
2023/10/09 20:00:57;;;;;;;5.50;2.80;;;;;;;4.96;100.00;100347.30;109355;1253;73907;-54
2023/10/09 20:03:27;;;;;;;5.30;3.10;;;;;;;4.98;100.00;100345.89;109288;1253;67814;-54
2023/10/09 20:05:55;;;;;;;4.90;2.70;;;;;;;5.00;100.00;100346.91;109346;1253;71749;-54
2023/10/09 20:08:23;;;;;;;5.50;3.10;;;;;;;5.01;100.00;100339.08;109358;1253;58163;-55
2023/10/09 20:10:50;;;;;;;6.80;3.50;;;;;;;5.01;100.00;100338.05;109291;1253;60043;-54
2023/10/09 20:13:18;;;;;;;5.70;2.60;;;;;;;5.02;100.00;100333.16;109243;1256;74240;-54
2023/10/09 20:15:46;;;;;;;6.40;3.10;;;;;;;5.02;100.00;100331.10;109281;1253;66920;-55
2023/10/09 20:18:14;;;;;;;5.70;2.50;;;;;;;5.01;100.00;100332.17;109231;1253;72710;-55
2023/10/09 20:20:44;;;;;;;5.80;2.40;;;;;;;4.99;100.00;100329.24;109285;1254;58442;-54
2023/10/09 20:23:20;;;;;;;5.40;2.80;;;;;;;4.97;100.00;100333.66;109163;1253;58738;-55
2023/10/09 20:25:58;;;;;;;4.60;2.10;;;;;;;4.91;100.00;100331.40;109290;1253;75549;-55
2023/10/09 20:28:26;;;;;;;4.60;2.40;;;;;;;4.85;100.00;100333.56;109246;1253;67511;-54
2023/10/09 20:30:53;;;;;;;6.40;2.70;;;;;;;4.79;100.00;100334.59;109117;1253;72672;-57
2023/10/09 20:33:22;;;;;;;5.00;2.20;;;;;;;4.73;100.00;100333.58;109265;1253;60911;-54
2023/10/09 20:35:55;;;;;;;6.10;2.70;;;;;;;4.68;100.00;100336.88;109229;1253;60305;-54
2023/10/09 20:38:25;;;;;;;5.80;2.60;;;;;;;4.61;100.00;100340.73;109295;1253;72658;-55
2023/10/09 20:40:53;;;;;;;6.90;2.60;;;;;;;4.56;100.00;100342.41;109199;1253;68058;-55
2023/10/09 20:43:21;;;;;;;6.40;2.50;;;;;;;4.50;100.00;100344.48;109203;1253;70928;-54
2023/10/09 20:45:48;;;;;;;6.90;2.50;;;;;;;4.45;100.00;100343.65;109204;1253;59347;-54
2023/10/09 20:48:16;;;;;;;6.50;2.60;;;;;;;4.41;100.00;100348.64;109168;1253;60103;-55
2023/10/09 20:50:44;;;;;;;4.60;2.10;;;;;;;4.38;100.00;100352.11;109251;1253;74081;-54
2023/10/09 20:53:13;;;;;;;6.50;2.60;;;;;;;4.37;100.00;100348.08;109157;1253;68136;-55
2023/10/09 20:55:41;;;;;;;7.20;2.50;;;;;;;4.36;100.00;100348.43;109135;1253;72730;-54
2023/10/09 20:58:10;;;;;;;3.70;1.80;;;;;;;4.33;100.00;100349.73;109155;1253;59353;-54
2023/10/09 21:00:39;;;;;;;6.20;2.20;;;;;;;4.25;100.00;100349.90;109224;1253;58892;-55
2023/10/09 21:03:06;;;;;;;4.80;2.20;;;;;;;4.16;100.00;100351.77;109231;1253;72628;-55
2023/10/09 21:05:35;;;;;;;6.40;2.00;;;;;;;4.07;100.00;100350.98;109247;1253;65167;-54
2023/10/09 21:08:03;;;;;;;3.00;1.60;;;;;;;3.98;100.00;100352.53;109235;1253;72678;-55
2023/10/09 21:10:30;;;;;;;3.70;1.90;;;;;;;3.91;100.00;100352.35;109107;1253;60939;-55
2023/10/09 21:12:58;;;;;;;5.30;2.30;;;;;;;3.84;100.00;100354.17;109210;1253;60424;-55
2023/10/09 21:15:26;;;;;;;5.10;1.80;;;;;;;3.78;100.00;100357.45;109141;1253;72954;-54
2023/10/09 21:17:54;;;;;;;4.40;1.90;;;;;;;3.73;100.00;100360.29;109157;1253;66982;-55
2023/10/09 21:20:28;;;;;;;3.00;1.70;;;;;;;3.71;100.00;100367.14;109124;1254;71410;-55
2023/10/09 21:22:56;;;;;;;5.10;1.70;;;;;;;3.70;100.00;100366.04;109202;1253;60890;-54
2023/10/09 21:25:25;;;;;;;4.00;1.60;;;;;;;3.70;100.00;100367.45;109233;1253;59140;-54
2023/10/09 21:27:54;;;;;;;5.50;2.20;;;;;;;3.70;100.00;100372.11;109287;1253;73083;-54
2023/10/09 21:30:23;;;;;;;3.70;1.90;;;;;;;3.68;100.00;100369.89;109176;1253;67598;-55
2023/10/09 21:32:53;;;;;;;3.30;1.70;;;;;;;3.65;100.00;100373.46;109224;1253;72709;-54
2023/10/09 21:35:22;;;;;;;4.20;1.90;;;;;;;3.64;100.00;100368.29;109170;1255;59260;-54
2023/10/09 21:37:52;;;;;;;4.10;2.00;;;;;;;3.62;100.00;100373.63;109102;1253;61253;-52
2023/10/09 21:40:28;;;;;;;4.20;1.70;;;;;;;3.58;100.00;100378.60;109130;1253;72613;-54
2023/10/09 21:43:06;;;;;;;4.20;1.70;;;;;;;3.54;100.00;100380.36;109127;1253;67072;-54
2023/10/09 21:45:38;;;;;;;3.90;1.80;;;;;;;3.51;100.00;100380.63;109188;1255;71442;-55
2023/10/09 21:48:06;;;;;;;4.90;1.80;;;;;;;3.47;100.00;100383.35;109202;1253;58636;-54
2023/10/09 21:50:37;;;;;;;3.90;1.70;;;;;;;3.39;100.00;100383.67;109262;1253;58877;-55
2023/10/09 21:53:05;;;;;;;4.00;1.70;;;;;;;3.31;100.00;100385.27;109321;1253;73887;-54
2023/10/09 21:55:36;;;;;;;3.70;1.80;;;;;;;3.24;100.00;100387.77;109211;1253;67054;-58
2023/10/09 21:58:08;;;;;;;3.30;1.30;;;;;;;3.20;100.00;100388.95;109245;1252;73135;-54
2023/10/09 22:00:37;;;;;;;3.50;1.20;;;;;;;3.16;100.00;100392.17;109352;1251;59347;-54
2023/10/09 22:03:08;;;;;;;4.90;2.20;;;;;;;3.14;100.00;100396.67;109468;1251;60466;-54
2023/10/09 22:05:42;;;;;;;3.60;1.20;;;;;;;3.11;100.00;100394.54;109303;1251;72129;-54
2023/10/09 22:08:10;;;;;;;3.80;1.60;;;;;;;3.03;100.00;100398.83;109258;1253;65886;-54
2023/10/09 22:10:39;;;;;;;4.20;1.80;;;;;;;2.96;100.00;100404.80;109236;1253;71760;-55
2023/10/09 22:13:07;;;;;;;6.10;1.90;;;;;;;2.89;100.00;100408.60;109235;1254;60489;-54
2023/10/09 22:15:36;;;;;;;3.80;1.30;;;;;;;2.83;100.00;100410.45;109081;1253;60125;-54
2023/10/09 22:18:11;;;;;;;5.60;1.80;;;;;;;2.78;100.00;100415.20;109205;1258;74353;-54
2023/10/09 22:20:39;;;;;;;3.50;1.80;;;;;;;2.74;100.00;100419.48;109172;1254;66986;-55
2023/10/09 22:23:13;;;;;;;3.40;1.50;;;;;;;2.71;100.00;100418.08;109172;1253;72848;-54
2023/10/09 22:25:45;;;;;;;3.70;1.50;;;;;;;2.66;100.00;100417.73;109164;1254;58111;-54
2023/10/09 22:28:12;;;;;;;2.90;1.20;;;;;;;2.64;100.00;100420.85;109173;1253;60569;-54
2023/10/09 22:30:43;;;;;;;3.00;1.30;;;;;;;2.61;100.00;100418.35;109261;1254;73903;-54
2023/10/09 22:33:19;;;;;;;4.00;1.70;;;;;;;2.59;100.00;100417.98;109182;1253;67846;-54
2023/10/09 22:35:55;;;;;;;3.50;2.00;;;;;;;2.55;100.00;100423.11;109163;1253;71811;-54
2023/10/09 22:38:22;;;;;;;3.50;2.00;;;;;;;2.51;100.00;100427.26;109242;1254;59362;-53
2023/10/09 22:40:51;;;;;;;3.10;1.60;;;;;;;2.45;100.00;100429.11;109244;1253;58840;-54
2023/10/09 22:43:23;;;;;;;4.80;1.40;;;;;;;2.37;100.00;100428.34;109183;1253;71910;-53
2023/10/09 22:45:52;;;;;;;2.90;1.40;;;;;;;2.29;100.00;100429.39;109340;1253;65020;-53
2023/10/09 22:48:26;;;;;;;3.00;1.60;;;;;;;2.22;100.00;100429.48;109228;1253;71627;-57
2023/10/09 22:51:09;;;;;;;5.20;1.60;;;;;;;2.15;100.00;100431.66;109275;1256;59818;-53
2023/10/09 22:53:38;;;;;;;5.10;1.70;;;;;;;2.09;100.00;100432.05;109210;1255;58902;-54
2023/10/09 22:56:11;;;;;;;3.30;1.70;;;;;;;2.02;100.00;100432.06;109132;1253;72526;-54
2023/10/09 22:58:50;;;;;;;4.00;1.30;;;;;;;1.95;100.00;100428.55;109157;1254;66554;-54
2023/10/09 23:01:31;;;;;;;3.40;1.70;;;;;;;1.88;100.00;100428.41;109148;1253;71671;-54
2023/10/09 23:06:45;;;;;;;3.70;1.60;;;;;;;1.79;100.00;100430.52;109172;1253;59308;-54
2023/10/09 23:09:16;;;;;;;3.10;1.60;;;;;;;1.77;100.00;100433.27;109171;1253;73109;-54
2023/10/09 23:11:54;;;;;;;4.40;1.90;;;;;;;1.75;100.00;100435.27;109103;1256;67350;-56
2023/10/09 23:14:26;;;;;;;4.20;2.00;;;;;;;1.75;100.00;100435.50;109234;1253;72787;-53
2023/10/09 23:17:07;;;;;;;3.30;1.30;;;;;;;1.73;100.00;100438.31;109238;1254;59577;-53
2023/10/09 23:19:43;;;;;;;3.40;1.60;;;;;;;1.72;100.00;100439.96;109103;1253;60684;-53
2023/10/09 23:24:50;;;;;;;2.90;1.50;;;;;;;1.65;100.00;100438.30;109087;1253;66807;-54
2023/10/09 23:33:41;;;;;;;3.10;1.50;;;;;;;1.56;100.00;100441.58;109170;1253;58371;-54
2023/10/09 23:36:26;;;;;;;4.70;1.70;;;;;;;1.57;100.00;100440.12;109095;1253;73848;-57